Ana Sayfa
METAR-TAF:

METAR-TAF

Havaalanları :

Ağrı Ahmed-i Hani Havalimanı

Ağrı, Türkiye

Enlem: 39-39-16N, Boylam: 43-01-38E, yükseklik: 1665 m

Güncel hava durumu gözlemi

Rapor saat 13:50 UTC de 11 saat ve 13 dakika önce yapıldı.
Rüzgar güney/güneybatıdan 3 kt, güney/güneydoğu ve batı arasında değişken
Sıcaklık 0°C
Nem 64%
Basınç 1013 hPa
Görüş mesafesi 10 km veya daha fazla
3500 ft yükseklikte az bulutlu

METAR: LTCO 251350Z 21003KT 160V260 9999 FEW035 M00/M06 Q1013

Saat: 04:03 (01:03 UTC)

Tahmin

Rapor saat 13:40 UTC de 11 saat ve 23 dakika önce yapıldı.
Ayın 25'si saat 15 UTC'den ayın 25'si saat 24 UTC'ye kadar geçerli Tahmin
Rüzgar değişken yönden 2 kt
Görüş mesafesi 10 km veya daha fazla
1500 m altında bulut yok ve kümülonimbus yok

TAF: LTCO 251340Z 2515/2524 VRB02KT CAVOK

4.000'den fazla havaalanı için hava durumu gözlemleri ve tahminleri (METAR ve TAF raporları).

Kullanılabilir istasyonlar harita üzerinde sarı ve kırmızı noktalarla gösterilir.

İstasyonun adını görmek için fareyi noktanın üzerinde gezdirin.

Sonrasında hava gözlem ve tahminlerini görmek için tıklayın.

Haritayı değiştirmek için: yaklaştırmak için siyah artı işaretli yeşil düğmeye ve uzaklaştırmak için de eksi işaretli düğmeye hızla tıklayın; bitişik haritalar için yeşil okları kullanın.


METAR-TAF: